Lokpriya Gopinath Bordoloi International Airport
VEGT : now visible

Airfield :











YOU CAN JOIN US ON...

 
LOGIN :

Register | Disclaimer

   EN    FR    IT 

 









Legend :    VFR   Marginal VFR   IFR   Intensive IFR   Very Intensive IFR
Visi :
Ceiling :
>= 8 km
>= 3000ft
5 to 8 km
1000 to 3000 ft
1500m to 5 km
500 to 1000 ft
800 to 1500m
200 to 500 ft
< 800m
< 200 ft
Symbols :   Thunderstorms  Fog  Heavy snow  Heavy precipitations  Wind > 20 kt






- Airport Elevation : 162 ft
- IATA code : GAU


VEGT - Lokpriya Gopinath Bordoloi International

CURRENT METAR :
  • 301700Z 00000KT 3000 HZ FEW020 SCT100 22/15 Q1011 NOSIG

EXPIRED METARs :
  • 301630Z 18003KT 3000 HZ FEW020 SCT100 23/15 Q1011 NOSIG
  • 301600Z 18003KT 3000 HZ FEW020 SCT100 23/15 Q1011 NOSIG
  • 301430Z 00000KT 3000 HZ FEW020 28/14 Q1010 NOSIG

TAF TAF VEGT
Valid from the 30 at 15:00 until the 31 at 00:00 UTC


301400Z 3015/3024 00000KT 3500 HZ FEW018 SCT100
BECMG 3022/3024 3000 BR



MET'MAP, your aeronautical weather chart ! - Copyright ORBIFLY December 2007 - Disclaimer

ORBIFLY MET'MAP TEAM :

Programming & Development : Alexandra Zaïnal
Concept & original design : Baudouin d'Aumeries
Assistance for programming : Marc-Olivier Méhu
Technical & hardware support : Manuel Goepfert

Contact : metmap@orbifly.com




SOURCES & CREDITS :

   NOAA       Earth
Advisory